메인 페이지
METAR-TAF:

METAR-TAF

공항 :

레이캬비크, 아이슬란드

위도: 64-08N, 경도: 021-54W, 고도: 54m

현재 날씨관측

예보는 1 시간 9분 전, 00:00시(UTC)에 발표되었습니다.
7kt
온도 11°C
습도 76%
기압 992 hPa
시정 10km 이상
고도 3400ft 상공 구름 조금
고도 4000ft 상공 구름 보통
고도 5100ft 상공 흐림

METAR: BIRK 150000Z 08007KT 9999 FEW034 SCT040 OVC051 11/07 Q0992

시각: 01:09 (01:09 UTC)

예보

예보는 2 시간 37분 전, 22:32시(UTC)에 발표되었습니다.
예보 대상 시간: 15일 00시부터 15일 24시까지 (UTC)
동남동8kt
시정 10km 이상
고도 1800ft 상공 구름 조금
고도 2500ft 상공 구름 많음
고도 3500ft 상공 흐림
약한비
일시적
15일 00시부터 15일 06시까지 (UTC)
시정: 4000m
고도 1200ft 상공 구름 많음
고도 2200ft 상공 흐림
이슬비, 박무
전환 중
15일 06시부터 15일 09시까지 (UTC)
북북동10kt
고도 2500ft 상공 구름 조금
고도 4000ft 상공 구름 많음
일시적
15일 12시부터 15일 18시까지 (UTC)
고도 2000ft 상공 구름 많음, 적란운.
소나기

TAF: BIRK 142232Z 1500/1524 12008KT 9999 -RA FEW018 BKN025 OVC035 TX14/1515Z TN09/1506Z TEMPO 1500/1506 4000 DZ BR BKN012 OVC022 BECMG 1506/1509 02010KT NSW FEW025 BKN040 TEMPO 1512/1518 SHRA BKN020CB

4,000개 이상의 공항 관측 자료 및 예보 (METAR 및 TAF 보고).

지도상에서 검색 가능한 기상관측소가 노란 점과 빨간 점으로 표시되어 있습니다.

기상관측소 명을 보려면 표시 위로 마우스를 이동하세요.

날씨 관측과 예보를 보려면 클릭하세요.

지도 변경 : 확대하려면 엑스 표시가 있는 녹색 버튼, 축소하려면 빼기 표시가 있는 녹색 버튼, 다음 페이지의 지도를 보려면 녹색 화살표를 클릭하세요.


METAR-TAF: